FDX341 EGSS-LFPG
Flight info
| Callsign | FDX341 |
|---|---|
| Flight time | 0h 46m |
| Altitude | 18000 |
| Route | DET M604 LYD UM189 WAFFU UM605 BIBAX |
| Aircraft | MD11/H-SDE1E2E3FGHIJ2J3J4J5M1RWXY/LB1D1 |
Departure
| Time | 2026-05-08 08:21 |
|---|---|
| Airport | London Stansted Airport (EGSS) |
Arrival
| Time | 2026-05-08 09:07 |
|---|---|
| Airport | Charles de Gaulle International Airport (LFPG) |
| Time | Latitude | Longitude | Altitude | Speed | Heading |
|---|---|---|---|---|---|
| 2026-05-08 07:48 | 51.88393 | 0.24436 | 361 ft | 0 kts | 223° |
| 2026-05-08 07:52 | 51.88739 | 0.25167 | 365 ft | 0 kts | 222° |
| 2026-05-08 07:53 | 51.88644 | 0.25294 | 364 ft | 0 kts | 223° |
| 2026-05-08 08:07 | 51.88651 | 0.25304 | 365 ft | 3 kts | 223° |
| 2026-05-08 08:07 | 51.88666 | 0.25327 | 365 ft | 3 kts | 223° |
| 2026-05-08 08:08 | 51.88681 | 0.25349 | 365 ft | 3 kts | 223° |
| 2026-05-08 08:08 | 51.88695 | 0.25371 | 365 ft | 3 kts | 229° |
| 2026-05-08 08:08 | 51.88706 | 0.25394 | 361 ft | 3 kts | 251° |
| 2026-05-08 08:08 | 51.88711 | 0.25410 | 362 ft | 3 kts | 294° |
| 2026-05-08 08:09 | 51.88708 | 0.25420 | 362 ft | 2 kts | 313° |
| 2026-05-08 08:09 | 51.88695 | 0.25442 | 365 ft | 3 kts | 313° |
| 2026-05-08 08:09 | 51.88690 | 0.25451 | 365 ft | 0 kts | 313° |
| 2026-05-08 08:13 | 51.88711 | 0.25414 | 361 ft | 10 kts | 313° |
| 2026-05-08 08:13 | 51.88746 | 0.25353 | 365 ft | 12 kts | 313° |
| 2026-05-08 08:13 | 51.88816 | 0.25232 | 365 ft | 10 kts | 313° |
| 2026-05-08 08:14 | 51.88848 | 0.25177 | 363 ft | 10 kts | 313° |
| 2026-05-08 08:14 | 51.88903 | 0.25080 | 364 ft | 8 kts | 313° |
| 2026-05-08 08:14 | 51.88928 | 0.25033 | 363 ft | 9 kts | 308° |
| 2026-05-08 08:14 | 51.88970 | 0.24947 | 364 ft | 9 kts | 308° |
| 2026-05-08 08:15 | 51.89009 | 0.24868 | 360 ft | 9 kts | 310° |
| 2026-05-08 08:15 | 51.89034 | 0.24809 | 363 ft | 2 kts | 283° |
| 2026-05-08 08:15 | 51.89018 | 0.24748 | 364 ft | 12 kts | 234° |
| 2026-05-08 08:15 | 51.88958 | 0.24651 | 364 ft | 12 kts | 223° |
| 2026-05-08 08:16 | 51.88902 | 0.24567 | 364 ft | 10 kts | 223° |
| 2026-05-08 08:16 | 51.88851 | 0.24490 | 364 ft | 11 kts | 223° |
| 2026-05-08 08:16 | 51.88774 | 0.24376 | 363 ft | 19 kts | 223° |
| 2026-05-08 08:16 | 51.88665 | 0.24213 | 363 ft | 22 kts | 223° |
| 2026-05-08 08:17 | 51.88555 | 0.24048 | 364 ft | 21 kts | 223° |
| 2026-05-08 08:17 | 51.88451 | 0.23893 | 363 ft | 19 kts | 223° |
| 2026-05-08 08:17 | 51.88355 | 0.23751 | 364 ft | 18 kts | 222° |
| 2026-05-08 08:17 | 51.88267 | 0.23619 | 363 ft | 17 kts | 222° |
| 2026-05-08 08:18 | 51.88185 | 0.23498 | 364 ft | 15 kts | 222° |
| 2026-05-08 08:18 | 51.88096 | 0.23364 | 364 ft | 23 kts | 223° |
| 2026-05-08 08:18 | 51.87977 | 0.23183 | 364 ft | 23 kts | 223° |
| 2026-05-08 08:18 | 51.87865 | 0.23015 | 365 ft | 21 kts | 223° |
| 2026-05-08 08:19 | 51.87761 | 0.22858 | 365 ft | 21 kts | 223° |
| 2026-05-08 08:19 | 51.87660 | 0.22708 | 363 ft | 19 kts | 223° |
| 2026-05-08 08:19 | 51.87567 | 0.22570 | 365 ft | 15 kts | 223° |
| 2026-05-08 08:19 | 51.87523 | 0.22484 | 359 ft | 10 kts | 247° |
| 2026-05-08 08:20 | 51.87530 | 0.22423 | 355 ft | 5 kts | 301° |
| 2026-05-08 08:20 | 51.87560 | 0.22358 | 357 ft | 10 kts | 310° |
| 2026-05-08 08:20 | 51.87622 | 0.22275 | 354 ft | 12 kts | 330° |
| 2026-05-08 08:20 | 51.87687 | 0.22276 | 353 ft | 9 kts | 26° |
| 2026-05-08 08:21 | 51.87735 | 0.22333 | 354 ft | 14 kts | 41° |
| 2026-05-08 08:21 | 51.87991 | 0.22718 | 357 ft | 96 kts | 44° |
| 2026-05-08 08:21 | 51.88681 | 0.23765 | 379 ft | 168 kts | 47° |
| 2026-05-08 08:21 | 51.89569 | 0.25127 | 1143 ft | 177 kts | 46° |
| 2026-05-08 08:22 | 51.90377 | 0.26570 | 2364 ft | 172 kts | 63° |
| 2026-05-08 08:22 | 51.90814 | 0.28409 | 3238 ft | 185 kts | 87° |
| 2026-05-08 08:22 | 51.90602 | 0.30570 | 3869 ft | 207 kts | 116° |
| 2026-05-08 08:22 | 51.89663 | 0.32310 | 4197 ft | 209 kts | 150° |
| 2026-05-08 08:23 | 51.88254 | 0.32854 | 4617 ft | 213 kts | 184° |
| 2026-05-08 08:23 | 51.86836 | 0.32092 | 5629 ft | 217 kts | 203° |
| 2026-05-08 08:23 | 51.85342 | 0.30937 | 6001 ft | 257 kts | 204° |
| 2026-05-08 08:23 | 51.83711 | 0.29653 | 6955 ft | 264 kts | 205° |
| 2026-05-08 08:24 | 51.82041 | 0.28349 | 7992 ft | 268 kts | 206° |
| 2026-05-08 08:24 | 51.80354 | 0.27044 | 9074 ft | 270 kts | 206° |
| 2026-05-08 08:24 | 51.78646 | 0.25733 | 10093 ft | 274 kts | 206° |
| 2026-05-08 08:24 | 51.76906 | 0.24428 | 10989 ft | 278 kts | 204° |
| 2026-05-08 08:25 | 51.75046 | 0.23664 | 11864 ft | 284 kts | 184° |
| 2026-05-08 08:25 | 51.73105 | 0.24264 | 12788 ft | 291 kts | 156° |
| 2026-05-08 08:25 | 51.71370 | 0.26028 | 13651 ft | 299 kts | 144° |
| 2026-05-08 08:25 | 51.69748 | 0.28159 | 14503 ft | 303 kts | 142° |
| 2026-05-08 08:26 | 51.68096 | 0.30288 | 15339 ft | 304 kts | 148° |
| 2026-05-08 08:26 | 51.66276 | 0.32036 | 16219 ft | 305 kts | 154° |
| 2026-05-08 08:26 | 51.64372 | 0.33629 | 16938 ft | 313 kts | 155° |
| 2026-05-08 08:26 | 51.62436 | 0.35174 | 17321 ft | 311 kts | 156° |
| 2026-05-08 08:27 | 51.60493 | 0.36701 | 17731 ft | 311 kts | 156° |
| 2026-05-08 08:27 | 51.58539 | 0.38229 | 18037 ft | 314 kts | 156° |
| 2026-05-08 08:27 | 51.56538 | 0.39790 | 18092 ft | 330 kts | 156° |
| 2026-05-08 08:27 | 51.54399 | 0.41454 | 18106 ft | 353 kts | 156° |
| 2026-05-08 08:28 | 51.52165 | 0.43195 | 18103 ft | 359 kts | 155° |
| 2026-05-08 08:28 | 51.49907 | 0.44950 | 18098 ft | 360 kts | 156° |
| 2026-05-08 08:28 | 51.47670 | 0.46667 | 18101 ft | 361 kts | 156° |
| 2026-05-08 08:28 | 51.45405 | 0.48396 | 18092 ft | 361 kts | 156° |
| 2026-05-08 08:29 | 51.43138 | 0.50122 | 18098 ft | 361 kts | 156° |
| 2026-05-08 08:29 | 51.40872 | 0.51845 | 18108 ft | 361 kts | 156° |
| 2026-05-08 08:29 | 51.38605 | 0.53569 | 18098 ft | 361 kts | 156° |
| 2026-05-08 08:29 | 51.36338 | 0.55291 | 18100 ft | 360 kts | 156° |
| 2026-05-08 08:30 | 51.34072 | 0.57011 | 18093 ft | 360 kts | 156° |
| 2026-05-08 08:30 | 51.31811 | 0.58725 | 17980 ft | 360 kts | 156° |
| 2026-05-08 08:30 | 51.27375 | 0.62458 | 17978 ft | 361 kts | 152° |
| 2026-05-08 08:31 | 51.25197 | 0.64481 | 17981 ft | 361 kts | 151° |
| 2026-05-08 08:31 | 51.23030 | 0.66518 | 17979 ft | 362 kts | 151° |
| 2026-05-08 08:31 | 51.20875 | 0.68545 | 17981 ft | 361 kts | 151° |
| 2026-05-08 08:31 | 51.18710 | 0.70577 | 17991 ft | 361 kts | 151° |
| 2026-05-08 08:32 | 51.16541 | 0.72606 | 17993 ft | 361 kts | 151° |
| 2026-05-08 08:32 | 51.14371 | 0.74630 | 18005 ft | 361 kts | 151° |
| 2026-05-08 08:32 | 51.12198 | 0.76652 | 18018 ft | 361 kts | 151° |
| 2026-05-08 08:32 | 51.10027 | 0.78670 | 18029 ft | 361 kts | 151° |
| 2026-05-08 08:33 | 51.07857 | 0.80684 | 18038 ft | 361 kts | 151° |
| 2026-05-08 08:33 | 51.05682 | 0.82696 | 18049 ft | 361 kts | 152° |
| 2026-05-08 08:33 | 51.03440 | 0.84470 | 18062 ft | 359 kts | 160° |
| 2026-05-08 08:33 | 51.01019 | 0.85399 | 18072 ft | 357 kts | 176° |
| 2026-05-08 08:34 | 50.98555 | 0.85108 | 18084 ft | 356 kts | 194° |
| 2026-05-08 08:34 | 50.96287 | 0.83588 | 18089 ft | 355 kts | 211° |
| 2026-05-08 08:34 | 50.94279 | 0.81286 | 18094 ft | 357 kts | 218° |
| 2026-05-08 08:34 | 50.92381 | 0.78749 | 18092 ft | 357 kts | 220° |
| 2026-05-08 08:35 | 50.90527 | 0.76206 | 18091 ft | 357 kts | 220° |
| 2026-05-08 08:35 | 50.88638 | 0.73649 | 18095 ft | 357 kts | 219° |
| 2026-05-08 08:35 | 50.86735 | 0.71123 | 18093 ft | 357 kts | 219° |
| 2026-05-08 08:35 | 50.84819 | 0.68616 | 18097 ft | 358 kts | 218° |
| 2026-05-08 08:36 | 50.82892 | 0.66124 | 18098 ft | 358 kts | 218° |
| 2026-05-08 08:36 | 50.80962 | 0.63643 | 18099 ft | 358 kts | 218° |
| 2026-05-08 08:36 | 50.79027 | 0.61165 | 18099 ft | 358 kts | 218° |
| 2026-05-08 08:36 | 50.77093 | 0.58696 | 18103 ft | 358 kts | 218° |
| 2026-05-08 08:37 | 50.75158 | 0.56230 | 18099 ft | 358 kts | 218° |
| 2026-05-08 08:37 | 50.73218 | 0.53760 | 18089 ft | 358 kts | 218° |
| 2026-05-08 08:37 | 50.71283 | 0.51302 | 18093 ft | 358 kts | 218° |
| 2026-05-08 08:37 | 50.69339 | 0.48834 | 18085 ft | 358 kts | 218° |
| 2026-05-08 08:38 | 50.67402 | 0.46376 | 18096 ft | 358 kts | 218° |
| 2026-05-08 08:38 | 50.65460 | 0.43917 | 18095 ft | 358 kts | 218° |
| 2026-05-08 08:38 | 50.63505 | 0.41479 | 18092 ft | 358 kts | 216° |
| 2026-05-08 08:38 | 50.61385 | 0.39429 | 18089 ft | 358 kts | 204° |
| 2026-05-08 08:39 | 50.59013 | 0.38326 | 18096 ft | 357 kts | 187° |
| 2026-05-08 08:39 | 50.56531 | 0.38466 | 18097 ft | 359 kts | 168° |
| 2026-05-08 08:39 | 50.54203 | 0.39864 | 18092 ft | 361 kts | 151° |
| 2026-05-08 08:39 | 50.52136 | 0.42131 | 18090 ft | 364 kts | 143° |
| 2026-05-08 08:40 | 50.50190 | 0.44691 | 18086 ft | 365 kts | 141° |
| 2026-05-08 08:40 | 50.48273 | 0.47299 | 18078 ft | 365 kts | 141° |
| 2026-05-08 08:40 | 50.46347 | 0.49885 | 18083 ft | 364 kts | 141° |
| 2026-05-08 08:40 | 50.44408 | 0.52433 | 18085 ft | 363 kts | 142° |
| 2026-05-08 08:41 | 50.42457 | 0.54952 | 18082 ft | 363 kts | 142° |
| 2026-05-08 08:41 | 50.40496 | 0.57455 | 18101 ft | 364 kts | 142° |
| 2026-05-08 08:41 | 50.38550 | 0.59921 | 18101 ft | 364 kts | 143° |
| 2026-05-08 08:41 | 50.36580 | 0.62409 | 18101 ft | 364 kts | 143° |
| 2026-05-08 08:42 | 50.34608 | 0.64889 | 18082 ft | 364 kts | 143° |
| 2026-05-08 08:42 | 50.32630 | 0.67369 | 18079 ft | 364 kts | 143° |
| 2026-05-08 08:42 | 50.30652 | 0.69849 | 18084 ft | 364 kts | 143° |
| 2026-05-08 08:42 | 50.28677 | 0.72322 | 18097 ft | 364 kts | 143° |
| 2026-05-08 08:43 | 50.26702 | 0.74795 | 18099 ft | 364 kts | 143° |
| 2026-05-08 08:43 | 50.24724 | 0.77268 | 18099 ft | 364 kts | 143° |
| 2026-05-08 08:43 | 50.22751 | 0.79734 | 18083 ft | 364 kts | 143° |
| 2026-05-08 08:43 | 50.20773 | 0.82203 | 18081 ft | 363 kts | 143° |
| 2026-05-08 08:44 | 50.18799 | 0.84664 | 18077 ft | 363 kts | 143° |
| 2026-05-08 08:44 | 50.16822 | 0.87124 | 18095 ft | 365 kts | 143° |
| 2026-05-08 08:44 | 50.14836 | 0.89595 | 18096 ft | 365 kts | 143° |
| 2026-05-08 08:44 | 50.12852 | 0.92062 | 18086 ft | 365 kts | 143° |
| 2026-05-08 08:45 | 50.10869 | 0.94530 | 18088 ft | 364 kts | 143° |
| 2026-05-08 08:45 | 50.08888 | 0.96992 | 18088 ft | 364 kts | 143° |
| 2026-05-08 08:45 | 50.06898 | 0.99416 | 18087 ft | 363 kts | 146° |
| 2026-05-08 08:45 | 50.04752 | 1.01476 | 18089 ft | 362 kts | 153° |
| 2026-05-08 08:46 | 50.02516 | 1.03267 | 18089 ft | 362 kts | 155° |
| 2026-05-08 08:46 | 50.00250 | 1.04968 | 18089 ft | 361 kts | 156° |
| 2026-05-08 08:46 | 49.97987 | 1.06643 | 18088 ft | 361 kts | 156° |
| 2026-05-08 08:46 | 49.95717 | 1.08328 | 18080 ft | 362 kts | 156° |
| 2026-05-08 08:47 | 49.93441 | 1.10026 | 18081 ft | 363 kts | 156° |
| 2026-05-08 08:47 | 49.91191 | 1.11713 | 18083 ft | 364 kts | 156° |
| 2026-05-08 08:47 | 49.88917 | 1.13423 | 18084 ft | 364 kts | 156° |
| 2026-05-08 08:47 | 49.86638 | 1.15139 | 18082 ft | 364 kts | 155° |
| 2026-05-08 08:48 | 49.84361 | 1.16853 | 18081 ft | 363 kts | 155° |
| 2026-05-08 08:48 | 49.82087 | 1.18565 | 18082 ft | 363 kts | 155° |
| 2026-05-08 08:48 | 49.79816 | 1.20273 | 18081 ft | 363 kts | 155° |
| 2026-05-08 08:48 | 49.77540 | 1.21981 | 18077 ft | 363 kts | 156° |
| 2026-05-08 08:49 | 49.75266 | 1.23689 | 18077 ft | 363 kts | 156° |
| 2026-05-08 08:49 | 49.72993 | 1.25393 | 18075 ft | 363 kts | 156° |
| 2026-05-08 08:49 | 49.70717 | 1.27097 | 18079 ft | 364 kts | 156° |
| 2026-05-08 08:49 | 49.68433 | 1.28806 | 18076 ft | 364 kts | 156° |
| 2026-05-08 08:50 | 49.66161 | 1.30504 | 18014 ft | 358 kts | 156° |
| 2026-05-08 08:50 | 49.63931 | 1.32171 | 17325 ft | 355 kts | 156° |
| 2026-05-08 08:50 | 49.61720 | 1.33820 | 16700 ft | 352 kts | 156° |
| 2026-05-08 08:50 | 49.59550 | 1.35436 | 16077 ft | 349 kts | 156° |
| 2026-05-08 08:51 | 49.57373 | 1.37056 | 15479 ft | 346 kts | 156° |
| 2026-05-08 08:51 | 49.55217 | 1.38659 | 14889 ft | 343 kts | 156° |
| 2026-05-08 08:51 | 49.53079 | 1.40247 | 14319 ft | 340 kts | 156° |
| 2026-05-08 08:51 | 49.50953 | 1.41825 | 13715 ft | 338 kts | 156° |
| 2026-05-08 08:52 | 49.48842 | 1.43389 | 13092 ft | 335 kts | 155° |
| 2026-05-08 08:52 | 49.46751 | 1.44937 | 12488 ft | 333 kts | 155° |
| 2026-05-08 08:52 | 49.44675 | 1.46474 | 12010 ft | 329 kts | 155° |
| 2026-05-08 08:52 | 49.42611 | 1.47999 | 11601 ft | 329 kts | 155° |
| 2026-05-08 08:53 | 49.40551 | 1.49519 | 11213 ft | 328 kts | 155° |
| 2026-05-08 08:53 | 49.38492 | 1.51037 | 10829 ft | 328 kts | 154° |
| 2026-05-08 08:53 | 49.36444 | 1.52546 | 10473 ft | 324 kts | 154° |
| 2026-05-08 08:53 | 49.34439 | 1.54022 | 10243 ft | 313 kts | 154° |
| 2026-05-08 08:54 | 49.32540 | 1.55463 | 10170 ft | 296 kts | 149° |
| 2026-05-08 08:54 | 49.30926 | 1.57352 | 9959 ft | 292 kts | 130° |
| 2026-05-08 08:54 | 49.29948 | 1.60005 | 9544 ft | 285 kts | 104° |
| 2026-05-08 08:54 | 49.29625 | 1.62963 | 9169 ft | 279 kts | 94° |
| 2026-05-08 08:55 | 49.29498 | 1.65914 | 8788 ft | 276 kts | 92° |
| 2026-05-08 08:55 | 49.29402 | 1.68840 | 8412 ft | 275 kts | 92° |
| 2026-05-08 08:55 | 49.29297 | 1.71741 | 8231 ft | 271 kts | 94° |
| 2026-05-08 08:55 | 49.28915 | 1.74581 | 8101 ft | 275 kts | 111° |
| 2026-05-08 08:56 | 49.27871 | 1.77013 | 7710 ft | 274 kts | 135° |
| 2026-05-08 08:56 | 49.26437 | 1.78865 | 7342 ft | 273 kts | 142° |
| 2026-05-08 08:56 | 49.24903 | 1.80584 | 6982 ft | 273 kts | 143° |
| 2026-05-08 08:56 | 49.23381 | 1.82254 | 6604 ft | 271 kts | 144° |
| 2026-05-08 08:57 | 49.21834 | 1.83955 | 6233 ft | 270 kts | 144° |
| 2026-05-08 08:57 | 49.20315 | 1.85631 | 5859 ft | 268 kts | 143° |
| 2026-05-08 08:57 | 49.18818 | 1.87291 | 5597 ft | 264 kts | 143° |
| 2026-05-08 08:57 | 49.17329 | 1.88947 | 5492 ft | 265 kts | 143° |
| 2026-05-08 08:58 | 49.16341 | 1.90045 | 5451 ft | 262 kts | 143° |
| 2026-05-08 08:58 | 49.14374 | 1.92231 | 5334 ft | 264 kts | 143° |
| 2026-05-08 08:58 | 49.12890 | 1.93885 | 5238 ft | 264 kts | 143° |
| 2026-05-08 08:58 | 49.11406 | 1.95539 | 5128 ft | 263 kts | 143° |
| 2026-05-08 08:59 | 49.09927 | 1.97187 | 5085 ft | 263 kts | 143° |
| 2026-05-08 08:59 | 49.08950 | 1.98276 | 5077 ft | 263 kts | 143° |
| 2026-05-08 08:59 | 49.07473 | 1.99919 | 5077 ft | 263 kts | 143° |
| 2026-05-08 08:59 | 49.05991 | 2.01567 | 5076 ft | 263 kts | 143° |
| 2026-05-08 09:00 | 49.04517 | 2.03206 | 5067 ft | 260 kts | 143° |
| 2026-05-08 09:00 | 49.03103 | 2.04775 | 5064 ft | 248 kts | 143° |
| 2026-05-08 09:00 | 49.01715 | 2.06316 | 5073 ft | 246 kts | 143° |
| 2026-05-08 09:00 | 49.00329 | 2.07854 | 5074 ft | 246 kts | 143° |
| 2026-05-08 09:01 | 48.98960 | 2.09417 | 5075 ft | 246 kts | 139° |
| 2026-05-08 09:01 | 48.97855 | 2.11391 | 5067 ft | 245 kts | 118° |
| 2026-05-08 09:01 | 48.97431 | 2.13852 | 5097 ft | 244 kts | 91° |
| 2026-05-08 09:01 | 48.97418 | 2.16414 | 4991 ft | 244 kts | 90° |
| 2026-05-08 09:02 | 48.97398 | 2.18880 | 5033 ft | 217 kts | 90° |
| 2026-05-08 09:02 | 48.97375 | 2.21009 | 5042 ft | 193 kts | 90° |
| 2026-05-08 09:02 | 48.97343 | 2.23035 | 5080 ft | 190 kts | 90° |
| 2026-05-08 09:02 | 48.97311 | 2.25052 | 5040 ft | 190 kts | 89° |
| 2026-05-08 09:03 | 48.97418 | 2.27045 | 4818 ft | 188 kts | 81° |
| 2026-05-08 09:03 | 48.97603 | 2.29013 | 4596 ft | 188 kts | 80° |
| 2026-05-08 09:03 | 48.97824 | 2.30960 | 4325 ft | 186 kts | 79° |
| 2026-05-08 09:03 | 48.98034 | 2.32905 | 4055 ft | 184 kts | 82° |
| 2026-05-08 09:04 | 48.98199 | 2.34866 | 3764 ft | 189 kts | 82° |
| 2026-05-08 09:04 | 48.98386 | 2.36794 | 3320 ft | 179 kts | 81° |
| 2026-05-08 09:04 | 48.98580 | 2.38605 | 2875 ft | 168 kts | 81° |
| 2026-05-08 09:04 | 48.98732 | 2.40314 | 2379 ft | 162 kts | 83° |
| 2026-05-08 09:05 | 48.98828 | 2.41977 | 1995 ft | 152 kts | 86° |
| 2026-05-08 09:05 | 48.98887 | 2.43594 | 1782 ft | 156 kts | 86° |
| 2026-05-08 09:05 | 48.98981 | 2.45257 | 1579 ft | 158 kts | 84° |
| 2026-05-08 09:05 | 48.99078 | 2.46924 | 1471 ft | 157 kts | 86° |
| 2026-05-08 09:06 | 48.99156 | 2.48575 | 1263 ft | 154 kts | 85° |
| 2026-05-08 09:06 | 48.99272 | 2.50182 | 1009 ft | 151 kts | 84° |
| 2026-05-08 09:06 | 48.99359 | 2.51766 | 819 ft | 152 kts | 85° |
| 2026-05-08 09:06 | 48.99458 | 2.53376 | 660 ft | 152 kts | 83° |
| 2026-05-08 09:07 | 48.99550 | 2.54972 | 437 ft | 147 kts | 84° |
| 2026-05-08 09:07 | 48.99631 | 2.56409 | 369 ft | 118 kts | 85° |
| 2026-05-08 09:07 | 48.99687 | 2.57463 | 366 ft | 87 kts | 85° |
| 2026-05-08 09:07 | 48.99735 | 2.58078 | 366 ft | 34 kts | 72° |
| 2026-05-08 09:08 | 48.99828 | 2.58394 | 366 ft | 31 kts | 65° |
| 2026-05-08 09:08 | 48.99887 | 2.58589 | 365 ft | 16 kts | 65° |
| 2026-05-08 09:08 | 48.99941 | 2.58717 | 366 ft | 13 kts | 45° |
| 2026-05-08 09:08 | 48.99998 | 2.58734 | 365 ft | 7 kts | 334° |
| 2026-05-08 09:09 | 49.00022 | 2.58687 | 362 ft | 6 kts | 291° |
| 2026-05-08 09:09 | 49.00024 | 2.58546 | 362 ft | 20 kts | 264° |
| 2026-05-08 09:09 | 49.00011 | 2.58332 | 366 ft | 20 kts | 266° |
| 2026-05-08 09:09 | 49.00002 | 2.58131 | 369 ft | 18 kts | 266° |
| 2026-05-08 09:10 | 48.99993 | 2.57945 | 366 ft | 17 kts | 266° |
| 2026-05-08 09:10 | 48.99982 | 2.57778 | 365 ft | 15 kts | 264° |
| 2026-05-08 09:10 | 48.99974 | 2.57624 | 368 ft | 16 kts | 266° |
| 2026-05-08 09:10 | 48.99964 | 2.57432 | 362 ft | 18 kts | 265° |
| 2026-05-08 09:11 | 48.99954 | 2.57244 | 363 ft | 17 kts | 265° |
| 2026-05-08 09:11 | 48.99945 | 2.57069 | 368 ft | 16 kts | 265° |
| 2026-05-08 09:11 | 48.99936 | 2.56910 | 362 ft | 14 kts | 264° |
| 2026-05-08 09:11 | 48.99927 | 2.56766 | 367 ft | 13 kts | 264° |
| 2026-05-08 09:12 | 48.99919 | 2.56637 | 367 ft | 12 kts | 264° |
| 2026-05-08 09:12 | 48.99912 | 2.56519 | 367 ft | 10 kts | 265° |
| 2026-05-08 09:12 | 48.99904 | 2.56353 | 366 ft | 22 kts | 266° |
| 2026-05-08 09:12 | 48.99894 | 2.56109 | 362 ft | 23 kts | 266° |
| 2026-05-08 09:13 | 48.99902 | 2.55879 | 369 ft | 21 kts | 281° |
| 2026-05-08 09:13 | 48.99934 | 2.55706 | 365 ft | 14 kts | 277° |
| 2026-05-08 09:13 | 48.99906 | 2.55534 | 366 ft | 19 kts | 253° |
| 2026-05-08 09:13 | 48.99889 | 2.55343 | 362 ft | 17 kts | 265° |
| 2026-05-08 09:14 | 48.99880 | 2.55167 | 363 ft | 16 kts | 265° |
| 2026-05-08 09:14 | 48.99872 | 2.55006 | 369 ft | 15 kts | 265° |
| 2026-05-08 09:14 | 48.99863 | 2.54848 | 364 ft | 18 kts | 265° |
| 2026-05-08 09:14 | 48.99853 | 2.54639 | 366 ft | 19 kts | 265° |
| 2026-05-08 09:15 | 48.99842 | 2.54443 | 366 ft | 18 kts | 264° |
| 2026-05-08 09:15 | 48.99840 | 2.54308 | 364 ft | 9 kts | 287° |
| 2026-05-08 09:15 | 48.99902 | 2.54225 | 370 ft | 12 kts | 317° |
| 2026-05-08 09:15 | 48.99914 | 2.54154 | 368 ft | 11 kts | 272° |
| 2026-05-08 09:16 | 48.99914 | 2.54052 | 367 ft | 7 kts | 282° |
| 2026-05-08 09:16 | 48.99951 | 2.54011 | 366 ft | 8 kts | 342° |
| 2026-05-08 09:16 | 48.99996 | 2.54002 | 364 ft | 0 kts | 354° |